EZY379 EDXW-EDHL
Flight info
| Callsign | EZY379 |
|---|---|
| Flight time | 0h 34m |
| Altitude | 23000 |
| Route | OLDIP1B/32 OLDIP DCT PIZID DCT EKERN T905 BOGMU BOGMU1R |
| Aircraft | A20N/M-SDE2E3FGHIRWXY/LB1 |
Departure
| Time | 2026-04-22 14:28 |
|---|---|
| Airport | Westerland Sylt Airport (EDXW) |
Arrival
| Time | 2026-04-22 15:02 |
|---|---|
| Airport | Lübeck Blankensee Airport (EDHL) |
| Time | Latitude | Longitude | Altitude | Speed | Heading |
|---|---|---|---|---|---|
| 2026-04-22 14:11 | 54.91312 | 8.33108 | 36 ft | 0 kts | 91° |
| 2026-04-22 14:17 | 54.91312 | 8.33110 | 36 ft | 1 kts | 91° |
| 2026-04-22 14:17 | 54.91312 | 8.33111 | 36 ft | 0 kts | 91° |
| 2026-04-22 14:20 | 54.91312 | 8.33112 | 36 ft | 0 kts | 91° |
| 2026-04-22 14:20 | 54.91311 | 8.33135 | 36 ft | 3 kts | 99° |
| 2026-04-22 14:20 | 54.91303 | 8.33160 | 36 ft | 3 kts | 133° |
| 2026-04-22 14:21 | 54.91284 | 8.33175 | 37 ft | 2 kts | 166° |
| 2026-04-22 14:21 | 54.91281 | 8.33176 | 37 ft | 0 kts | 167° |
| 2026-04-22 14:22 | 54.91254 | 8.33183 | 39 ft | 6 kts | 178° |
| 2026-04-22 14:22 | 54.91243 | 8.33184 | 39 ft | 7 kts | 177° |
| 2026-04-22 14:22 | 54.91060 | 8.33172 | 40 ft | 21 kts | 192° |
| 2026-04-22 14:23 | 54.90952 | 8.33119 | 43 ft | 11 kts | 176° |
| 2026-04-22 14:23 | 54.90855 | 8.33194 | 41 ft | 20 kts | 161° |
| 2026-04-22 14:23 | 54.90695 | 8.33232 | 38 ft | 27 kts | 175° |
| 2026-04-22 14:23 | 54.90547 | 8.33254 | 35 ft | 26 kts | 168° |
| 2026-04-22 14:24 | 54.90450 | 8.33310 | 34 ft | 10 kts | 152° |
| 2026-04-22 14:24 | 54.90375 | 8.33391 | 33 ft | 15 kts | 139° |
| 2026-04-22 14:24 | 54.90303 | 8.33550 | 32 ft | 19 kts | 120° |
| 2026-04-22 14:24 | 54.90258 | 8.33787 | 32 ft | 22 kts | 101° |
| 2026-04-22 14:25 | 54.90236 | 8.34058 | 32 ft | 22 kts | 92° |
| 2026-04-22 14:25 | 54.90256 | 8.34333 | 32 ft | 24 kts | 81° |
| 2026-04-22 14:25 | 54.90286 | 8.34623 | 35 ft | 24 kts | 80° |
| 2026-04-22 14:25 | 54.90316 | 8.34915 | 39 ft | 23 kts | 80° |
| 2026-04-22 14:26 | 54.90345 | 8.35078 | 44 ft | 2 kts | 51° |
| 2026-04-22 14:26 | 54.90348 | 8.35084 | 44 ft | 2 kts | 51° |
| 2026-04-22 14:26 | 54.90349 | 8.35088 | 44 ft | 3 kts | 51° |
| 2026-04-22 14:26 | 54.90372 | 8.35133 | 45 ft | 7 kts | 43° |
| 2026-04-22 14:27 | 54.90429 | 8.35146 | 46 ft | 11 kts | 338° |
| 2026-04-22 14:27 | 54.90571 | 8.34979 | 45 ft | 60 kts | 324° |
| 2026-04-22 14:27 | 54.91195 | 8.34197 | 54 ft | 160 kts | 324° |
| 2026-04-22 14:27 | 54.92232 | 8.32950 | 522 ft | 198 kts | 326° |
| 2026-04-22 14:28 | 54.93340 | 8.31595 | 1696 ft | 190 kts | 324° |
| 2026-04-22 14:28 | 54.94397 | 8.30271 | 2887 ft | 193 kts | 323° |
| 2026-04-22 14:28 | 54.95556 | 8.28817 | 3571 ft | 211 kts | 323° |
| 2026-04-22 14:28 | 54.96752 | 8.27315 | 3913 ft | 215 kts | 322° |
| 2026-04-22 14:29 | 54.97798 | 8.25470 | 3987 ft | 215 kts | 301° |
| 2026-04-22 14:29 | 54.98215 | 8.23020 | 4003 ft | 213 kts | 269° |
| 2026-04-22 14:29 | 54.97817 | 8.20558 | 4007 ft | 214 kts | 241° |
| 2026-04-22 14:29 | 54.96997 | 8.18379 | 4002 ft | 215 kts | 234° |
| 2026-04-22 14:30 | 54.96106 | 8.16281 | 3995 ft | 216 kts | 233° |
| 2026-04-22 14:30 | 54.95079 | 8.14370 | 4004 ft | 216 kts | 217° |
| 2026-04-22 14:30 | 54.93713 | 8.13279 | 4241 ft | 223 kts | 192° |
| 2026-04-22 14:30 | 54.92696 | 8.13189 | 4366 ft | 231 kts | 173° |
| 2026-04-22 14:31 | 54.90606 | 8.14869 | 4397 ft | 263 kts | 143° |
| 2026-04-22 14:31 | 54.89652 | 8.16196 | 4397 ft | 267 kts | 140° |
| 2026-04-22 14:31 | 54.88249 | 8.18272 | 4713 ft | 276 kts | 140° |
| 2026-04-22 14:31 | 54.87232 | 8.19774 | 5322 ft | 284 kts | 140° |
| 2026-04-22 14:32 | 54.85873 | 8.21760 | 6573 ft | 281 kts | 141° |
| 2026-04-22 14:32 | 54.84378 | 8.23918 | 7935 ft | 279 kts | 141° |
| 2026-04-22 14:32 | 54.82867 | 8.26048 | 9114 ft | 282 kts | 144° |
| 2026-04-22 14:32 | 54.81238 | 8.28001 | 10208 ft | 287 kts | 148° |
| 2026-04-22 14:33 | 54.79537 | 8.29883 | 11299 ft | 291 kts | 148° |
| 2026-04-22 14:33 | 54.77812 | 8.31762 | 12371 ft | 296 kts | 148° |
| 2026-04-22 14:33 | 54.76053 | 8.33675 | 13439 ft | 301 kts | 148° |
| 2026-04-22 14:33 | 54.74271 | 8.35613 | 14468 ft | 306 kts | 148° |
| 2026-04-22 14:34 | 54.72463 | 8.37580 | 15460 ft | 311 kts | 148° |
| 2026-04-22 14:34 | 54.70629 | 8.39591 | 16408 ft | 316 kts | 147° |
| 2026-04-22 14:34 | 54.68953 | 8.41979 | 17290 ft | 322 kts | 133° |
| 2026-04-22 14:34 | 54.67708 | 8.45143 | 18169 ft | 327 kts | 117° |
| 2026-04-22 14:35 | 54.66781 | 8.48761 | 19059 ft | 332 kts | 112° |
| 2026-04-22 14:35 | 54.65960 | 8.52308 | 19899 ft | 336 kts | 112° |
| 2026-04-22 14:35 | 54.65088 | 8.56100 | 20755 ft | 341 kts | 112° |
| 2026-04-22 14:35 | 54.64200 | 8.59929 | 21585 ft | 345 kts | 112° |
| 2026-04-22 14:36 | 54.63299 | 8.63779 | 22355 ft | 350 kts | 112° |
| 2026-04-22 14:36 | 54.62388 | 8.67652 | 22831 ft | 352 kts | 112° |
| 2026-04-22 14:36 | 54.61635 | 8.71696 | 22991 ft | 357 kts | 104° |
| 2026-04-22 14:36 | 54.61105 | 8.75875 | 23000 ft | 358 kts | 101° |
| 2026-04-22 14:37 | 54.60691 | 8.80127 | 23000 ft | 358 kts | 98° |
| 2026-04-22 14:37 | 54.60334 | 8.84355 | 22999 ft | 357 kts | 98° |
| 2026-04-22 14:37 | 54.59988 | 8.88597 | 23000 ft | 357 kts | 98° |
| 2026-04-22 14:37 | 54.59634 | 8.92840 | 23000 ft | 357 kts | 98° |
| 2026-04-22 14:38 | 54.59270 | 8.97022 | 22998 ft | 357 kts | 99° |
| 2026-04-22 14:38 | 54.58930 | 9.00795 | 22998 ft | 357 kts | 99° |
| 2026-04-22 14:38 | 54.58553 | 9.04872 | 23001 ft | 357 kts | 99° |
| 2026-04-22 14:38 | 54.58154 | 9.09105 | 23000 ft | 357 kts | 99° |
| 2026-04-22 14:39 | 54.57758 | 9.13274 | 23000 ft | 357 kts | 99° |
| 2026-04-22 14:39 | 54.57353 | 9.17499 | 23000 ft | 357 kts | 99° |
| 2026-04-22 14:39 | 54.56945 | 9.21750 | 23000 ft | 357 kts | 99° |
| 2026-04-22 14:40 | 54.56135 | 9.30162 | 23001 ft | 357 kts | 99° |
| 2026-04-22 14:40 | 54.55726 | 9.34391 | 23000 ft | 357 kts | 99° |
| 2026-04-22 14:40 | 54.55284 | 9.38611 | 22997 ft | 357 kts | 105° |
| 2026-04-22 14:40 | 54.54290 | 9.42399 | 22999 ft | 355 kts | 126° |
| 2026-04-22 14:41 | 54.52717 | 9.45648 | 23002 ft | 355 kts | 133° |
| 2026-04-22 14:41 | 54.51020 | 9.48770 | 23000 ft | 356 kts | 134° |
| 2026-04-22 14:41 | 54.49352 | 9.51805 | 23000 ft | 356 kts | 134° |
| 2026-04-22 14:41 | 54.47634 | 9.54930 | 23000 ft | 356 kts | 134° |
| 2026-04-22 14:42 | 54.45934 | 9.58018 | 23000 ft | 356 kts | 134° |
| 2026-04-22 14:42 | 54.44228 | 9.61115 | 22999 ft | 356 kts | 134° |
| 2026-04-22 14:42 | 54.42525 | 9.64204 | 22999 ft | 356 kts | 134° |
| 2026-04-22 14:42 | 54.40830 | 9.67277 | 22992 ft | 356 kts | 134° |
| 2026-04-22 14:43 | 54.39123 | 9.70370 | 22498 ft | 357 kts | 134° |
| 2026-04-22 14:43 | 54.37391 | 9.73504 | 21590 ft | 368 kts | 134° |
| 2026-04-22 14:43 | 54.35642 | 9.76665 | 20627 ft | 378 kts | 134° |
| 2026-04-22 14:43 | 54.33777 | 9.80031 | 19557 ft | 388 kts | 134° |
| 2026-04-22 14:44 | 54.31890 | 9.83432 | 18414 ft | 397 kts | 134° |
| 2026-04-22 14:44 | 54.29980 | 9.86871 | 17209 ft | 406 kts | 134° |
| 2026-04-22 14:44 | 54.28054 | 9.90336 | 15930 ft | 414 kts | 134° |
| 2026-04-22 14:44 | 54.26011 | 9.94006 | 14731 ft | 418 kts | 134° |
| 2026-04-22 14:45 | 54.23986 | 9.97581 | 13658 ft | 418 kts | 135° |
| 2026-04-22 14:45 | 54.21923 | 10.00892 | 12584 ft | 415 kts | 139° |
| 2026-04-22 14:45 | 54.19729 | 10.04008 | 11511 ft | 412 kts | 142° |
| 2026-04-22 14:45 | 54.17484 | 10.07021 | 11022 ft | 394 kts | 143° |
| 2026-04-22 14:46 | 54.15325 | 10.09619 | 11019 ft | 366 kts | 147° |
| 2026-04-22 14:46 | 54.13267 | 10.11915 | 11033 ft | 340 kts | 148° |
| 2026-04-22 14:46 | 54.11380 | 10.13959 | 11047 ft | 317 kts | 148° |
| 2026-04-22 14:46 | 54.09533 | 10.15952 | 10932 ft | 301 kts | 148° |
| 2026-04-22 14:47 | 54.07786 | 10.17852 | 10602 ft | 295 kts | 148° |
| 2026-04-22 14:47 | 54.06091 | 10.19715 | 10174 ft | 293 kts | 148° |
| 2026-04-22 14:47 | 54.04395 | 10.21600 | 9729 ft | 291 kts | 147° |
| 2026-04-22 14:47 | 54.02692 | 10.23504 | 9270 ft | 289 kts | 147° |
| 2026-04-22 14:48 | 54.01021 | 10.25383 | 8810 ft | 287 kts | 147° |
| 2026-04-22 14:48 | 53.99489 | 10.27482 | 8356 ft | 286 kts | 136° |
| 2026-04-22 14:48 | 53.98248 | 10.30106 | 7900 ft | 285 kts | 122° |
| 2026-04-22 14:48 | 53.97453 | 10.33155 | 7450 ft | 283 kts | 107° |
| 2026-04-22 14:49 | 53.96967 | 10.36280 | 7014 ft | 282 kts | 103° |
| 2026-04-22 14:49 | 53.96535 | 10.39549 | 6563 ft | 280 kts | 102° |
| 2026-04-22 14:49 | 53.96125 | 10.42753 | 6120 ft | 278 kts | 102° |
| 2026-04-22 14:49 | 53.95714 | 10.45953 | 5661 ft | 276 kts | 102° |
| 2026-04-22 14:50 | 53.95306 | 10.49118 | 5221 ft | 274 kts | 102° |
| 2026-04-22 14:50 | 53.94903 | 10.52235 | 4780 ft | 273 kts | 102° |
| 2026-04-22 14:50 | 53.94493 | 10.55394 | 4324 ft | 271 kts | 103° |
| 2026-04-22 14:50 | 53.94087 | 10.58506 | 4047 ft | 267 kts | 103° |
| 2026-04-22 14:51 | 53.93702 | 10.61453 | 3998 ft | 250 kts | 103° |
| 2026-04-22 14:51 | 53.93336 | 10.64251 | 4011 ft | 234 kts | 103° |
| 2026-04-22 14:51 | 53.92992 | 10.66873 | 4002 ft | 226 kts | 103° |
| 2026-04-22 14:51 | 53.92651 | 10.69466 | 4022 ft | 225 kts | 103° |
| 2026-04-22 14:52 | 53.92313 | 10.72026 | 4020 ft | 225 kts | 103° |
| 2026-04-22 14:52 | 53.91970 | 10.74629 | 4000 ft | 227 kts | 103° |
| 2026-04-22 14:52 | 53.91626 | 10.77236 | 3739 ft | 226 kts | 103° |
| 2026-04-22 14:52 | 53.91282 | 10.79830 | 3526 ft | 227 kts | 103° |
| 2026-04-22 14:53 | 53.90939 | 10.82418 | 3502 ft | 227 kts | 103° |
| 2026-04-22 14:53 | 53.90593 | 10.85024 | 3503 ft | 226 kts | 103° |
| 2026-04-22 14:53 | 53.90259 | 10.87536 | 3499 ft | 226 kts | 103° |
| 2026-04-22 14:53 | 53.89905 | 10.90183 | 3498 ft | 226 kts | 103° |
| 2026-04-22 14:54 | 53.89558 | 10.92781 | 3503 ft | 226 kts | 103° |
| 2026-04-22 14:54 | 53.89207 | 10.95407 | 3503 ft | 226 kts | 103° |
| 2026-04-22 14:54 | 53.88862 | 10.97976 | 3498 ft | 226 kts | 103° |
| 2026-04-22 14:54 | 53.88515 | 11.00567 | 3498 ft | 222 kts | 103° |
| 2026-04-22 14:55 | 53.88142 | 11.03011 | 3500 ft | 200 kts | 111° |
| 2026-04-22 14:55 | 53.87461 | 11.04862 | 3491 ft | 178 kts | 137° |
| 2026-04-22 14:55 | 53.86393 | 11.05631 | 3495 ft | 166 kts | 187° |
| 2026-04-22 14:55 | 53.85271 | 11.05249 | 3469 ft | 166 kts | 191° |
| 2026-04-22 14:56 | 53.84190 | 11.04581 | 3114 ft | 165 kts | 223° |
| 2026-04-22 14:56 | 53.83553 | 11.03099 | 3014 ft | 148 kts | 250° |
| 2026-04-22 14:56 | 53.83402 | 11.01482 | 3017 ft | 133 kts | 274° |
| 2026-04-22 14:56 | 53.83621 | 11.00029 | 3032 ft | 130 kts | 294° |
| 2026-04-22 14:57 | 53.84158 | 10.98785 | 3008 ft | 133 kts | 316° |
| 2026-04-22 14:57 | 53.84913 | 10.97887 | 3004 ft | 134 kts | 324° |
| 2026-04-22 14:57 | 53.85426 | 10.96637 | 2891 ft | 132 kts | 271° |
| 2026-04-22 14:57 | 53.85199 | 10.95160 | 2736 ft | 131 kts | 247° |
| 2026-04-22 14:58 | 53.84821 | 10.93764 | 2553 ft | 131 kts | 247° |
| 2026-04-22 14:58 | 53.84478 | 10.92355 | 2370 ft | 126 kts | 250° |
| 2026-04-22 14:58 | 53.84192 | 10.90987 | 2210 ft | 122 kts | 252° |
| 2026-04-22 14:58 | 53.83934 | 10.89633 | 2052 ft | 121 kts | 253° |
| 2026-04-22 14:59 | 53.83675 | 10.88284 | 1882 ft | 120 kts | 252° |
| 2026-04-22 14:59 | 53.83416 | 10.86937 | 1729 ft | 120 kts | 252° |
| 2026-04-22 14:59 | 53.83161 | 10.85613 | 1576 ft | 119 kts | 253° |
| 2026-04-22 14:59 | 53.82904 | 10.84273 | 1419 ft | 119 kts | 253° |
| 2026-04-22 15:00 | 53.82649 | 10.82942 | 1260 ft | 119 kts | 252° |
| 2026-04-22 15:00 | 53.82393 | 10.81612 | 1099 ft | 118 kts | 253° |
| 2026-04-22 15:00 | 53.82139 | 10.80288 | 944 ft | 118 kts | 252° |
| 2026-04-22 15:00 | 53.81884 | 10.78962 | 784 ft | 119 kts | 252° |
| 2026-04-22 15:01 | 53.81629 | 10.77635 | 634 ft | 119 kts | 252° |
| 2026-04-22 15:01 | 53.81374 | 10.76304 | 467 ft | 119 kts | 252° |
| 2026-04-22 15:01 | 53.81116 | 10.74966 | 312 ft | 119 kts | 252° |
| 2026-04-22 15:01 | 53.80865 | 10.73656 | 216 ft | 113 kts | 252° |
| 2026-04-22 15:02 | 53.80631 | 10.72415 | 60 ft | 106 kts | 252° |
| 2026-04-22 15:02 | 53.80486 | 10.71670 | 63 ft | 32 kts | 250° |
| 2026-04-22 15:02 | 53.80418 | 10.71321 | 64 ft | 31 kts | 252° |
| 2026-04-22 15:02 | 53.80356 | 10.70999 | 60 ft | 25 kts | 252° |
| 2026-04-22 15:03 | 53.80303 | 10.70705 | 61 ft | 17 kts | 263° |
| 2026-04-22 15:03 | 53.80322 | 10.70598 | 56 ft | 3 kts | 315° |
| 2026-04-22 15:03 | 53.80329 | 10.70586 | 56 ft | 3 kts | 319° |
| 2026-04-22 15:03 | 53.80352 | 10.70554 | 53 ft | 5 kts | 321° |
| 2026-04-22 15:04 | 53.80356 | 10.70549 | 57 ft | 0 kts | 321° |
| 2026-04-22 15:05 | 53.80359 | 10.70545 | 57 ft | 1 kts | 322° |
| 2026-04-22 15:05 | 53.80390 | 10.70507 | 59 ft | 10 kts | 323° |
| 2026-04-22 15:05 | 53.80437 | 10.70411 | 58 ft | 13 kts | 265° |
| 2026-04-22 15:05 | 53.80421 | 10.70300 | 60 ft | 8 kts | 267° |
| 2026-04-22 15:06 | 53.80434 | 10.70260 | 55 ft | 0 kts | 326° |
| 2026-04-22 15:06 | 53.80436 | 10.70258 | 56 ft | 0 kts | 326° |